Aviation Digital Data Service (ADDS)

Output produced by METARs form (1949 UTC 28 April 2017)
found at http://aviationweather.gov/adds/metars/
 
KDAG 281850Z AUTO 04008KT 020V080 10SM CLR 22/M08 A2987 RMK AO2 SLP096 T02221083
KDAG 281722Z 2818/2918 34012G20KT P6SM SKC 
     FM282200 33018G28KT P6SM SKC 
     FM290100 34012KT P6SM SKC 
     FM290500 VRB06KT P6SM SKC
       
KEDW 281858Z 02011G15KT 60SM FEW330 21/M07 A2986 RMK AO2A SLP096 T02141070
TAF KEDW 281809Z 2818/2924 31009KT 9999 FEW060 FEW330 QNH2985INS 
     BECMG 2822/2823 34012G20KT 9999 FEW060 FEW330 510009 QNH2983INS 
     BECMG 2905/2906 02012KT 9999 FEW300 QNH2989INS 
     BECMG 2916/2917 04010G15KT 9999 FEW300 520009 QNH3005INS TX24/2821Z TN06/2912Z
       
KVCV 281935Z AUTO 00000KT 10SM SCT110 19/M09 A2989 RMK AO2
KONT 281853Z 27005KT 10SM FEW075 FEW250 24/04 A2981 RMK AO2 SLP080 T02390044
KONT 281746Z 2818/2924 26007KT P6SM SKC 
     FM282100 28012G18KT P6SM SKC 
     FM290300 VRB06KT P6SM SKC WS010/03030KT 
     FM291200 04015G25KT P6SM SKC 
     FM291900 34009KT P6SM SKC 
     FM292200 27011KT P6SM SKC
       
KNID 281856Z VRB04KT 10SM CLR 22/M07 A2987 RMK AO2 SLP100 T02171072 $
TAF AMD KNID 2818/2915 01010G20KT 9999 FEW220 520009 520909 QNH2983INS 330V040 
     TEMPO 2818/2823 VRB05KT 
     BECMG 2823/2901 01015G25KT 9999 SKC 520009 520909 QNH2980INS 
     BECMG 2903/2905 01010G20KT 9999 SKC 510009 510909 QNH2985INS T24/2823Z T11/2913Z AMD 1830
       
KSNA 281853Z 19011KT 9SM SCT250 22/13 A2981 RMK AO2 SLP092 T02170133
KSNA 281746Z 2818/2918 22008KT P6SM SKC 
     FM282100 28011KT P6SM SKC 
     FM290200 VRB04KT P6SM SKC 
     FM291200 VRB05KT P6SM SKC WS010/03030KT 
     FM291600 05015KT P6SM SKC
       
KSAN 281851Z 21008KT 10SM FEW025 FEW250 21/14 A2982 RMK AO2 SLP098 T02060139
KSAN 281746Z 2818/2924 23010KT P6SM SCT250 
     FM282000 29011KT P6SM SKC 
     FM282300 31014G22KT P6SM SKC 
     FM290300 VRB05KT P6SM SKC 
     FM291900 31011KT P6SM SKC
       
KNXP 281856Z 02015G18KT 10SM CLR 22/M11 A2991 RMK AO2 SLP098 T02221106
TAF AMD KNXP 2818/2915 33018G28KT 9999 SCT250 530009 530909 551809 532709 533606 QNH2981INS 
     TEMPO 2903/2909 31012G22KT T23/2822Z T14/2913Z AMD 1830
       
KPSP 281853Z 01010G21KT 330V040 10SM CLR 29/M06 A2977 RMK AO2 SLP075 T02941061
KPSP 281746Z 2818/2918 34014KT P6SM SCT250 
     FM282200 VRB06KT P6SM SKC 
     FM290200 35010KT P6SM SKC 
     FM290700 34015G25KT P6SM SKC
       
KLAX 281853Z 34013G21KT 10SM FEW070 SCT160 27/M01 A2980 RMK AO2 SLP088 T02671006
KLAX 281722Z 2818/2924 35015G25KT P6SM SKC 
     FM282100 28018G28KT P6SM SKC 
     FM290300 30012KT P6SM SKC 
     FM290600 35006KT P6SM SKC 
     FM291200 06008KT P6SM SKC 
     FM292000 26014KT P6SM SKC
       
KCNO 281853Z VRB03KT 10SM FEW020 SCT240 26/05 A2981 RMK AO2 SLP089 T02610050
KSMO 281851Z 36012G26KT 10SM CLR 26/M02 A2980 RMK AO2 PK WND 36029/1826 SLP089 T02561017
KSMO 281722Z 2818/2918 35012G20KT P6SM SKC 
     FM282000 27015KT P6SM SKC 
     FM290200 28008KT P6SM SKC 
     FM290500 VRB03KT P6SM SKC 
     FM291000 03010KT P6SM SKC 
     FM291600 06014G22KT P6SM SKC
       
KLGB 281853Z 18009KT 9SM CLR 21/12 A2980 RMK AO2 SLP090 T02110122
KLGB 281722Z 2818/2918 19007KT P6SM SKC 
     FM282100 28014G22KT P6SM SKC 
     FM290300 33012KT P6SM SKC 
     FM290800 VRB03KT P6SM SKC
       
KVNY 281851Z 36026G35KT 10SM CLR 24/M03 A2981 RMK AO2 PK WND 01037/1837 SLP086 T02441028
KVNY 281722Z 2818/2918 36020G30KT P6SM SKC 
     FM290200 35025G35KT P6SM SKC 
     FM290600 35018KT P6SM SKC 
     FM290900 35012KT P6SM SKC 
     FM291400 36020G30KT P6SM SKC
       
KBUR 281853Z 31014G26KT 10SM CLR 24/M02 A2982 RMK AO2 PK WND 31027/1825 SLP084 T02391022
KBUR 281722Z 2818/2918 33015G25KT P6SM SKC 
     FM290400 33008KT P6SM SKC 
     FM291400 35007KT P6SM SKC WS010/05035KT
       
KBFL 281854Z 32009G17KT 10SM CLR 21/04 A2998 RMK AO2 SLP146 T02060044
KBFL 281727Z 2818/2918 31008KT P6SM SKC 
     FM282000 31015G22KT P6SM SKC 
     FM290300 35010KT P6SM SKC 
     FM290800 VRB04KT P6SM SKC
       
KPMD 281853Z AUTO 35013G21KT 10SM CLR 21/M03 A2990 RMK AO2 SLP105 T02111033
KPMD 281722Z 2818/2918 32015G25KT P6SM SKC 
     FM290300 31012KT P6SM SKC 
     FM290800 30008KT P6SM SKC 
     FM291500 34012KT P6SM SKC
       
KOXR 281851Z 24009KT 10SM CLR 20/09 A2985 RMK AO2 SLP106 T02000089
KOXR 281722Z 2818/2918 27012KT P6SM SKC 
     FM282000 28015G25KT P6SM SKC 
     FM290200 29010KT P6SM SKC 
     FM290600 VRB03KT P6SM SKC 
     FM291200 03008KT P6SM SKC 
     FM291600 06015G25KT P6SM SKC
       
KWJF 281856Z 30014G27KT 10SM CLR 21/M02 A2991 RMK AO2 PK WND 35027/1834 SLP117 T02061022
KWJF 281722Z 2818/2918 32010KT P6SM SKC 
     FM282300 31015G25KT P6SM SKC 
     FM290600 32010KT P6SM SKC 
     FM291500 35008KT P6SM SKC
       
KCMA 281855Z 24009KT 10SM CLR 24/06 A2983 RMK AO2 SLP110 T02440061
KCMA 281722Z 2818/2918 29008KT P6SM SKC 
     FM282000 29015G25KT P6SM SKC 
     FM290200 29008KT P6SM SKC 
     FM290600 VRB03KT P6SM SKC 
     FM291100 05012KT P6SM SKC 
     FM291500 06018G28KT P6SM SKC
       
KFAT 281853Z 32014KT 10SM CLR 21/03 A2996 RMK AO2 SLP141 T02060033
KFAT 281727Z 2818/2918 32013G20KT P6SM SKC 
     TEMPO 2822/2902 32020G28KT 
     FM290600 31012KT P6SM SKC 
     FM291200 31006KT P6SM SKC
       
KEED 281856Z AUTO 03016G30KT 10SM CLR 26/M11 A2979 RMK AO2 PK WND 03038/1825 SLP062 T02561111
KEED 281722Z 2818/2918 01025G37KT P6SM SKC 
     FM290300 02018G25KT P6SM SKC 
     FM290800 01010G18KT P6SM SKC 
     FM291400 35025G35KT P6SM SKC
       
KLSV 281941Z AUTO 26020G26KT 10SM CLR 21/M14 A2984 RMK AO2 WSHFT 29 SLP089
TAF KLSV 281501Z 2815/2921 01015G25KT 9999 FEW250 520009 QNH2977INS 
     TEMPO 2816/2901 01025G30KT 530009 
     BECMG 2900/2901 01015G25KT 9999 SCT250 520009 QNH2976INS 
     BECMG 2905/2906 36015G25KT 9999 FEW250 520009 QNH2991INS 
     BECMG 2917/2918 02012G18KT 9999 SKC QNH2998INS TX22/2821Z TN11/2912Z
       
KLAS 281856Z 01021G29KT 10SM FEW120 19/M13 A2985 RMK AO2 PK WND 35036/1832 SLP092 T01941133
KLAS 281722Z 2818/2918 34025G35KT P6SM FEW250 
     FM290200 02016G25KT P6SM FEW250 
     FM290800 33012G20KT P6SM SKC 
     FM291500 34020G30KT P6SM SKC
       
KHII 281935Z AUTO 33019G27KT 10SM CLR 25/M12 A2976 RMK AO2
KIFP 281935Z 33023KT 10SM CLR 24/M13 A2977 RMK AO2
KIFP 281722Z 2818/2918 36032G42KT P6SM FEW250 
     FM290300 01016G26KT P6SM FEW250 
     FM290600 35010KT P6SM SKC 
     FM291400 35028G38KT P6SM SKC